createdAt,value
2023-02-18T00:01:31.774Z,22.57
2023-02-18T00:03:59.613Z,23.03
2023-02-18T00:06:31.911Z,23.00
2023-02-18T00:09:02.011Z,22.83
2023-02-18T00:11:30.723Z,22.93
2023-02-18T00:14:01.475Z,23.90
2023-02-18T00:16:30.166Z,24.73
2023-02-18T00:19:02.717Z,23.93
2023-02-18T00:21:31.068Z,26.43
2023-02-18T00:23:59.423Z,24.97
2023-02-18T00:26:29.752Z,24.60
2023-02-18T00:28:58.669Z,25.53
2023-02-18T00:31:27.136Z,25.17
2023-02-18T00:33:54.659Z,24.73
2023-02-18T00:36:22.393Z,25.20
2023-02-18T00:38:52.088Z,25.90
2023-02-18T00:41:19.472Z,25.40
2023-02-18T00:43:46.590Z,25.57
2023-02-18T00:46:13.509Z,26.93
2023-02-18T00:48:40.783Z,24.53
2023-02-18T00:51:08.664Z,27.43
2023-02-18T00:53:35.912Z,26.40
2023-02-18T00:56:02.766Z,26.13
2023-02-18T00:58:29.713Z,25.23
2023-02-18T01:00:56.759Z,26.87
2023-02-18T01:03:23.787Z,27.33
2023-02-18T01:05:54.438Z,26.57
2023-02-18T01:08:22.718Z,27.30
2023-02-18T01:10:52.844Z,26.80
2023-02-18T01:13:20.870Z,27.47
2023-02-18T01:15:47.656Z,26.33
2023-02-18T01:18:14.803Z,26.87
2023-02-18T01:20:42.867Z,26.93
2023-02-18T01:23:10.491Z,26.73
2023-02-18T01:25:38.992Z,25.30
2023-02-18T01:28:07.824Z,27.40
2023-02-18T01:30:37.727Z,25.70
2023-02-18T01:33:05.737Z,25.67
2023-02-18T01:35:34.018Z,25.67
2023-02-18T01:38:02.733Z,24.57
2023-02-18T01:40:31.937Z,26.03
2023-02-18T01:43:00.715Z,25.07
2023-02-18T01:45:49.768Z,25.10
2023-02-18T01:48:27.386Z,24.20
2023-02-18T01:50:58.913Z,24.20
2023-02-18T01:53:31.512Z,25.60
2023-02-18T01:56:02.870Z,26.53
2023-02-18T01:58:31.851Z,26.47
2023-02-18T02:01:00.938Z,25.83
2023-02-18T02:03:29.932Z,26.97
2023-02-18T02:05:59.071Z,26.83
2023-02-18T02:08:27.344Z,26.47
2023-02-18T02:11:01.421Z,26.43
2023-02-18T02:13:31.435Z,26.10
2023-02-18T02:16:06.750Z,25.83
2023-02-18T02:18:48.485Z,26.90
2023-02-18T02:21:28.316Z,26.73
2023-02-18T02:23:59.225Z,26.20
2023-02-18T02:26:41.039Z,25.87
2023-02-18T02:29:27.452Z,27.13
2023-02-18T02:32:04.829Z,25.53
2023-02-18T02:34:51.146Z,26.23
2023-02-18T02:37:25.438Z,25.37
2023-02-18T02:40:13.006Z,25.70
2023-02-18T02:42:47.989Z,25.17
2023-02-18T02:45:15.049Z,24.57
2023-02-18T02:47:46.485Z,25.80
2023-02-18T02:50:17.728Z,22.97
2023-02-18T02:52:46.843Z,24.30
2023-02-18T02:55:15.869Z,23.03
2023-02-18T02:57:52.164Z,24.40
2023-02-18T03:00:20.930Z,22.97
2023-02-18T03:03:12.231Z,21.83
2023-02-18T03:05:58.396Z,20.50
2023-02-18T03:08:42.793Z,19.43
2023-02-18T03:11:12.472Z,20.77
2023-02-18T03:13:49.699Z,18.60
2023-02-18T03:16:36.945Z,17.77
2023-02-18T03:19:11.139Z,17.33
2023-02-18T03:21:57.513Z,19.00
2023-02-18T03:24:27.171Z,18.37
2023-02-18T03:27:01.165Z,16.57
2023-02-18T03:29:29.475Z,16.73
2023-02-18T03:31:59.495Z,17.03
2023-02-18T03:34:30.860Z,16.67
2023-02-18T03:36:59.712Z,17.47
2023-02-18T03:39:28.982Z,17.90
2023-02-18T03:41:57.003Z,17.70
2023-02-18T03:44:26.091Z,16.17
2023-02-18T03:46:53.492Z,18.03
2023-02-18T03:49:20.581Z,17.13
2023-02-18T03:51:47.690Z,17.27
2023-02-18T03:54:15.067Z,16.07
2023-02-18T03:56:42.614Z,16.23
2023-02-18T03:59:09.732Z,16.57
2023-02-18T04:01:36.888Z,16.07
2023-02-18T04:04:04.146Z,16.60
2023-02-18T04:06:31.357Z,17.00
2023-02-18T04:08:58.436Z,16.73
2023-02-18T04:11:25.541Z,15.43
2023-02-18T04:13:52.994Z,16.00
2023-02-18T04:16:20.314Z,16.13
2023-02-18T04:18:47.464Z,15.87
2023-02-18T04:21:14.546Z,15.37
2023-02-18T04:23:41.634Z,15.03
2023-02-18T04:26:09.033Z,15.13
2023-02-18T04:28:36.326Z,14.90
2023-02-18T04:31:03.609Z,13.90
2023-02-18T04:33:30.770Z,14.77
2023-02-18T04:35:57.535Z,12.67
2023-02-18T04:38:24.285Z,13.20
2023-02-18T04:40:50.940Z,11.80
2023-02-18T04:43:17.621Z,11.60
2023-02-18T04:45:44.305Z,12.20
2023-02-18T04:48:11.011Z,10.77
2023-02-18T04:50:37.704Z,10.50
2023-02-18T04:53:04.404Z,11.00
2023-02-18T04:55:31.090Z,10.90
2023-02-18T04:57:57.802Z,11.20
2023-02-18T05:00:24.721Z,10.03
2023-02-18T05:02:51.398Z,11.03
2023-02-18T05:05:18.170Z,9.67
2023-02-18T05:07:44.841Z,9.87
2023-02-18T05:10:16.083Z,10.10
2023-02-18T05:12:43.241Z,9.50
2023-02-18T05:15:10.719Z,9.60
2023-02-18T05:17:37.520Z,9.23
2023-02-18T05:20:04.590Z,10.13
2023-02-18T05:22:31.255Z,9.50
2023-02-18T05:24:57.985Z,8.87
2023-02-18T05:27:24.754Z,8.63
2023-02-18T05:29:51.415Z,8.87
2023-02-18T05:32:18.224Z,9.03
2023-02-18T05:34:44.858Z,9.53
2023-02-18T05:37:13.630Z,9.37
2023-02-18T05:39:41.376Z,8.37
2023-02-18T05:42:08.216Z,8.57
2023-02-18T05:44:35.034Z,7.27
2023-02-18T05:47:10.333Z,7.27
2023-02-18T05:49:39.137Z,7.57
2023-02-18T05:52:05.883Z,6.30
2023-02-18T05:54:33.402Z,7.43
2023-02-18T05:57:00.194Z,6.27
2023-02-18T05:59:26.941Z,6.23
2023-02-18T06:01:53.928Z,6.63
2023-02-18T06:04:20.791Z,5.83
2023-02-18T06:06:47.471Z,6.40
2023-02-18T06:09:14.258Z,6.63
2023-02-18T06:11:40.919Z,6.27
2023-02-18T06:14:07.910Z,5.70
2023-02-18T06:16:34.635Z,4.83
2023-02-18T06:19:01.358Z,4.60
2023-02-18T06:21:28.090Z,5.00
2023-02-18T06:23:54.793Z,4.23
2023-02-18T06:26:21.530Z,4.23
2023-02-18T06:28:48.182Z,4.20
2023-02-18T06:31:15.539Z,4.03
2023-02-18T06:33:42.240Z,3.40
2023-02-18T06:36:13.731Z,4.10
2023-02-18T06:38:42.220Z,3.13
2023-02-18T06:41:09.673Z,3.70
2023-02-18T06:43:36.495Z,3.00
2023-02-18T06:46:04.245Z,3.20
2023-02-18T06:48:31.527Z,3.10
2023-02-18T06:50:58.579Z,3.30
2023-02-18T06:53:25.615Z,3.10
2023-02-18T06:55:52.278Z,3.07
2023-02-18T06:58:18.961Z,3.33
2023-02-18T07:00:45.763Z,2.60
2023-02-18T07:03:15.700Z,2.80
2023-02-18T07:05:42.816Z,3.20
2023-02-18T07:08:10.323Z,3.10
2023-02-18T07:10:37.306Z,2.93
2023-02-18T07:13:04.461Z,3.00
2023-02-18T07:15:32.177Z,2.40
2023-02-18T07:17:58.979Z,2.60
2023-02-18T07:20:26.328Z,3.00
2023-02-18T07:22:53.279Z,3.17
2023-02-18T07:25:22.840Z,3.07
2023-02-18T07:27:50.696Z,2.93
2023-02-18T07:30:18.261Z,2.83
2023-02-18T07:32:44.956Z,2.80
2023-02-18T07:35:14.344Z,2.70
2023-02-18T07:37:44.954Z,2.77
2023-02-18T07:40:14.859Z,3.10
2023-02-18T07:42:41.807Z,2.23
2023-02-18T07:45:09.177Z,2.47
2023-02-18T07:47:36.255Z,2.30
2023-02-18T07:50:03.679Z,2.40
2023-02-18T07:52:30.412Z,2.50
2023-02-18T07:54:57.269Z,2.60
2023-02-18T07:57:23.997Z,2.27
2023-02-18T07:59:50.671Z,2.20
2023-02-18T08:02:23.538Z,2.50
2023-02-18T08:04:50.272Z,2.40
2023-02-18T08:07:20.477Z,2.60
2023-02-18T08:09:48.981Z,2.23
2023-02-18T08:12:15.725Z,2.20
2023-02-18T08:14:42.497Z,5.13
2023-02-18T08:17:09.307Z,5.10
2023-02-18T08:19:35.980Z,5.93
2023-02-18T08:22:03.663Z,2.10
2023-02-18T08:24:30.357Z,1.80
2023-02-18T08:27:01.589Z,1.70
2023-02-18T08:29:29.153Z,1.80
2023-02-18T08:31:57.923Z,1.90
2023-02-18T08:34:24.950Z,1.60
2023-02-18T08:36:51.656Z,1.67
2023-02-18T08:39:18.319Z,2.00
2023-02-18T08:41:44.954Z,1.80
2023-02-18T08:44:11.678Z,1.83
2023-02-18T08:46:38.421Z,2.03
2023-02-18T08:49:05.528Z,1.73
2023-02-18T08:51:32.367Z,1.50
2023-02-18T08:53:59.061Z,1.93
2023-02-18T08:56:25.981Z,2.00
2023-02-18T08:58:52.670Z,2.10
2023-02-18T09:01:20.751Z,1.90
2023-02-18T09:03:48.651Z,1.90
2023-02-18T09:06:15.465Z,1.70
2023-02-18T09:08:42.153Z,2.10
2023-02-18T09:11:10.964Z,1.63
2023-02-18T09:13:38.668Z,2.00
2023-02-18T09:16:14.219Z,1.60
2023-02-18T09:18:41.411Z,2.10
2023-02-18T09:21:09.985Z,2.00
2023-02-18T09:23:37.395Z,2.60
2023-02-18T09:26:05.989Z,2.50
2023-02-18T09:28:32.951Z,2.10
2023-02-18T09:31:05.397Z,2.00
2023-02-18T09:33:34.356Z,2.00
2023-02-18T09:36:02.070Z,2.10
2023-02-18T09:38:29.118Z,2.47
2023-02-18T09:40:57.546Z,2.20
2023-02-18T09:43:32.703Z,3.30
2023-02-18T09:46:02.092Z,3.50
2023-02-18T09:48:34.922Z,3.40
2023-02-18T09:51:01.757Z,3.80
2023-02-18T09:53:28.635Z,4.23
2023-02-18T09:55:57.540Z,4.70
2023-02-18T09:58:29.662Z,4.23
2023-02-18T10:01:37.394Z,4.70
2023-02-18T10:04:12.931Z,5.00
2023-02-18T10:06:39.679Z,5.17
2023-02-18T10:09:22.843Z,18.63
2023-02-18T10:11:55.062Z,5.83
2023-02-18T10:14:21.718Z,4.63
2023-02-18T10:16:50.887Z,4.33
2023-02-18T10:19:20.576Z,4.97
2023-02-18T10:21:48.162Z,4.57
2023-02-18T10:24:29.642Z,4.77
2023-02-18T10:26:57.321Z,5.20
2023-02-18T10:29:24.576Z,4.63
2023-02-18T10:32:06.354Z,5.10
2023-02-18T10:34:49.724Z,5.30
2023-02-18T10:37:46.512Z,5.60
2023-02-18T10:40:52.857Z,5.50
2023-02-18T10:43:22.498Z,5.10
2023-02-18T10:46:32.553Z,5.57
2023-02-18T10:49:31.928Z,5.67
2023-02-18T10:52:01.908Z,5.23
2023-02-18T10:55:00.366Z,5.80
2023-02-18T10:57:27.825Z,4.63
2023-02-18T11:00:20.019Z,4.70
2023-02-18T11:02:47.991Z,4.90
2023-02-18T11:05:26.882Z,5.53
2023-02-18T11:07:56.791Z,5.03
2023-02-18T11:10:30.800Z,4.17
2023-02-18T11:13:02.064Z,4.80
2023-02-18T11:15:29.707Z,4.50
2023-02-18T11:18:11.242Z,5.03
2023-02-18T11:20:38.860Z,4.93
2023-02-18T11:23:19.301Z,4.80
2023-02-18T11:26:00.779Z,5.60
2023-02-18T11:28:43.788Z,5.13
2023-02-18T11:31:16.386Z,4.87
2023-02-18T11:33:57.414Z,4.87
2023-02-18T11:36:26.055Z,4.40
2023-02-18T11:39:04.486Z,4.10
2023-02-18T11:41:35.870Z,4.60
2023-02-18T11:44:05.517Z,5.20
2023-02-18T11:46:32.256Z,5.07
2023-02-18T11:49:21.262Z,5.50
2023-02-18T11:51:48.840Z,4.43
2023-02-18T11:54:30.317Z,5.47
2023-02-18T11:57:10.931Z,5.03
2023-02-18T11:59:39.735Z,5.13
2023-02-18T12:02:19.046Z,5.20
2023-02-18T12:04:51.848Z,5.23
2023-02-18T12:07:31.743Z,5.03
2023-02-18T12:10:02.683Z,5.10
2023-02-18T12:12:44.726Z,5.50
2023-02-18T12:15:19.027Z,5.47
2023-02-18T12:18:03.924Z,6.17
2023-02-18T12:20:42.710Z,5.37
2023-02-18T12:23:21.348Z,5.57
2023-02-18T12:26:08.927Z,5.73
2023-02-18T12:28:59.900Z,6.13
2023-02-18T12:31:37.095Z,6.60
2023-02-18T12:34:22.266Z,5.30
2023-02-18T12:37:11.102Z,5.83
2023-02-18T12:39:54.872Z,6.27
2023-02-18T12:42:30.204Z,5.80
2023-02-18T12:45:17.045Z,5.83
2023-02-18T12:48:08.882Z,5.43
2023-02-18T12:50:47.463Z,5.70
2023-02-18T12:53:46.301Z,6.03
2023-02-18T12:56:12.919Z,6.10
2023-02-18T12:58:59.040Z,6.20
2023-02-18T13:01:48.904Z,6.27
2023-02-18T13:04:55.546Z,6.13
2023-02-18T13:07:22.834Z,6.03
2023-02-18T13:10:04.003Z,5.87
2023-02-18T13:12:53.270Z,6.33
2023-02-18T13:15:40.254Z,6.73
2023-02-18T13:18:31.520Z,6.23
2023-02-18T13:21:07.524Z,6.90
2023-02-18T13:23:54.407Z,6.77
2023-02-18T13:26:22.082Z,6.83
2023-02-18T13:28:49.379Z,6.97
2023-02-18T13:31:22.511Z,6.43
2023-02-18T13:34:03.083Z,6.23
2023-02-18T13:36:37.805Z,5.63
2023-02-18T13:39:08.614Z,6.77
2023-02-18T13:41:38.100Z,6.00
2023-02-18T13:44:28.701Z,6.30
2023-02-18T13:46:57.063Z,5.23
2023-02-18T13:49:37.613Z,5.10
2023-02-18T13:52:05.204Z,5.70
2023-02-18T13:54:44.766Z,5.23
2023-02-18T13:57:21.486Z,5.77
2023-02-18T13:59:48.751Z,5.13
2023-02-18T14:02:22.164Z,6.17
2023-02-18T14:04:52.661Z,4.40
2023-02-18T14:07:20.086Z,4.50
2023-02-18T14:09:48.240Z,4.30
2023-02-18T14:12:19.068Z,3.97
2023-02-18T14:14:46.958Z,3.83
2023-02-18T14:17:21.140Z,3.73
2023-02-18T14:20:04.078Z,3.67
2023-02-18T14:22:48.476Z,4.50
2023-02-18T14:25:16.392Z,4.30
2023-02-18T14:27:44.536Z,4.43
2023-02-18T14:30:29.101Z,4.50
2023-02-18T14:33:03.802Z,5.00
2023-02-18T14:35:34.800Z,4.87
2023-02-18T14:38:15.145Z,4.90
2023-02-18T14:40:49.575Z,4.93
2023-02-18T14:43:36.141Z,5.00
2023-02-18T14:46:12.414Z,5.23
2023-02-18T14:48:43.660Z,5.13
2023-02-18T14:51:12.301Z,5.90
2023-02-18T14:53:45.130Z,5.67
2023-02-18T14:56:16.634Z,5.97
2023-02-18T14:58:55.706Z,5.43
2023-02-18T15:01:28.181Z,4.93
2023-02-18T15:03:58.764Z,4.17
2023-02-18T15:06:33.646Z,5.87
2023-02-18T15:09:04.453Z,5.03
2023-02-18T15:11:39.261Z,4.43
2023-02-18T15:14:13.898Z,4.57
2023-02-18T15:16:44.347Z,4.07
2023-02-18T15:19:19.592Z,5.00
2023-02-18T15:21:51.392Z,5.77
2023-02-18T15:24:38.008Z,4.97
2023-02-18T15:27:15.174Z,3.93
2023-02-18T15:29:45.767Z,4.77
2023-02-18T15:32:24.297Z,3.90
2023-02-18T15:35:04.757Z,4.67
2023-02-18T15:37:35.424Z,4.70
2023-02-18T15:40:07.625Z,5.00
2023-02-18T15:42:42.034Z,4.63
2023-02-18T15:45:45.829Z,5.90
2023-02-18T15:48:38.582Z,4.90
2023-02-18T15:51:18.041Z,4.10
2023-02-18T15:54:00.707Z,5.67
2023-02-18T15:56:44.668Z,4.87
2023-02-18T15:59:30.497Z,4.60
2023-02-18T16:02:12.627Z,5.47
2023-02-18T16:05:00.282Z,5.23
2023-02-18T16:07:51.371Z,5.53
2023-02-18T16:10:36.044Z,5.37
2023-02-18T16:13:17.965Z,5.40
2023-02-18T16:16:01.119Z,6.37
2023-02-18T16:18:45.576Z,4.83
2023-02-18T16:21:34.142Z,5.23
2023-02-18T16:24:13.932Z,5.90
2023-02-18T16:26:54.659Z,6.67
2023-02-18T16:29:38.112Z,6.30
2023-02-18T16:32:21.212Z,4.80
2023-02-18T16:35:03.545Z,5.27
2023-02-18T16:37:45.918Z,5.67
2023-02-18T16:40:31.609Z,4.93
2023-02-18T16:43:18.165Z,6.93
2023-02-18T16:46:08.156Z,4.80
2023-02-18T16:48:57.907Z,5.40
2023-02-18T16:51:42.621Z,5.63
2023-02-18T16:54:29.091Z,5.30
2023-02-18T16:57:07.712Z,5.27
2023-02-18T16:59:48.720Z,5.50
2023-02-18T17:02:35.954Z,5.87
2023-02-18T17:05:26.378Z,5.10
2023-02-18T17:08:09.790Z,10.60
2023-02-18T17:10:46.176Z,7.93
2023-02-18T17:13:24.687Z,6.60
2023-02-18T17:16:04.493Z,7.37
2023-02-18T17:18:43.768Z,8.53
2023-02-18T17:21:34.966Z,11.60
2023-02-18T17:24:22.059Z,5.70
2023-02-18T17:27:05.044Z,6.03
2023-02-18T17:29:50.322Z,58.50
2023-02-18T17:32:35.325Z,8.73
2023-02-18T17:35:14.066Z,5.37
2023-02-18T17:38:01.372Z,5.70
2023-02-18T17:40:51.354Z,5.70
2023-02-18T17:43:58.084Z,7.30
2023-02-18T17:46:59.746Z,5.90
2023-02-18T17:49:55.449Z,6.10
2023-02-18T17:53:06.444Z,6.13
2023-02-18T17:56:15.824Z,8.00
2023-02-18T17:58:46.429Z,6.87
2023-02-18T18:01:15.881Z,8.57
2023-02-18T18:03:45.132Z,9.03
2023-02-18T18:06:18.503Z,7.27
2023-02-18T18:08:48.138Z,7.93
2023-02-18T18:11:24.761Z,8.00
2023-02-18T18:13:54.558Z,9.60
2023-02-18T18:16:24.020Z,8.60
2023-02-18T18:18:53.310Z,10.40
2023-02-18T18:21:27.009Z,9.47
2023-02-18T18:23:56.280Z,9.47
2023-02-18T18:26:25.527Z,9.70
2023-02-18T18:28:54.820Z,10.53
2023-02-18T18:31:24.324Z,11.60
2023-02-18T18:33:54.161Z,15.13
2023-02-18T18:36:24.587Z,14.60
2023-02-18T18:38:53.994Z,10.60
2023-02-18T18:41:24.944Z,10.43
2023-02-18T18:43:54.248Z,10.17
2023-02-18T18:46:23.551Z,10.23
2023-02-18T18:48:52.695Z,11.93
2023-02-18T18:51:24.225Z,9.23
2023-02-18T18:53:53.187Z,9.03
2023-02-18T18:56:22.061Z,8.00
2023-02-18T18:58:51.446Z,7.97
2023-02-18T19:01:23.131Z,7.27
2023-02-18T19:03:52.379Z,7.93
2023-02-18T19:06:21.359Z,7.80
2023-02-18T19:08:50.505Z,8.93
2023-02-18T19:11:19.608Z,8.70
2023-02-18T19:13:48.536Z,10.33
2023-02-18T19:16:52.613Z,10.80
2023-02-18T19:19:24.498Z,11.80
2023-02-18T19:21:53.436Z,13.27
2023-02-18T19:24:22.178Z,13.73
2023-02-18T19:26:50.920Z,12.40
2023-02-18T19:29:23.223Z,13.13
2023-02-18T19:31:52.624Z,12.73
2023-02-18T19:34:22.731Z,13.57
2023-02-18T19:36:51.019Z,13.10
2023-02-18T19:39:19.617Z,13.63
2023-02-18T19:41:48.225Z,14.43
2023-02-18T19:44:16.486Z,14.80
2023-02-18T19:46:44.725Z,16.70
2023-02-18T19:49:12.870Z,15.70
2023-02-18T19:51:40.920Z,17.90
2023-02-18T19:54:09.073Z,15.23
2023-02-18T19:56:37.283Z,15.37
2023-02-18T19:59:05.438Z,15.77
2023-02-18T20:01:33.579Z,14.53
2023-02-18T20:04:01.873Z,14.57
2023-02-18T20:06:30.572Z,14.43
2023-02-18T20:08:58.596Z,15.20
2023-02-18T20:11:26.706Z,17.80
2023-02-18T20:13:54.304Z,18.90
2023-02-18T20:16:22.409Z,16.37
2023-02-18T20:18:50.430Z,16.40
2023-02-18T20:21:18.545Z,16.10
2023-02-18T20:23:46.832Z,16.07
2023-02-18T20:26:15.743Z,19.17
2023-02-18T20:28:44.431Z,22.47
2023-02-18T20:31:14.151Z,17.20
2023-02-18T20:33:42.944Z,16.07
2023-02-18T20:36:11.265Z,16.63
2023-02-18T20:38:39.610Z,14.83
2023-02-18T20:41:08.935Z,15.73
2023-02-18T20:43:37.222Z,15.27
2023-02-18T20:46:09.098Z,15.47
2023-02-18T20:48:37.801Z,15.73
2023-02-18T20:51:09.400Z,15.63
2023-02-18T20:53:37.755Z,14.33
2023-02-18T20:56:06.440Z,15.20
2023-02-18T20:58:35.116Z,16.53
2023-02-18T21:01:08.034Z,17.10
2023-02-18T21:03:37.125Z,15.50
2023-02-18T21:06:15.727Z,16.07
2023-02-18T21:08:44.813Z,15.30
2023-02-18T21:11:14.376Z,15.13
2023-02-18T21:13:42.631Z,16.10
2023-02-18T21:16:10.611Z,15.00
2023-02-18T21:18:39.636Z,15.53
2023-02-18T21:21:09.400Z,14.57
2023-02-18T21:23:38.430Z,13.97
2023-02-18T21:26:08.002Z,13.83
2023-02-18T21:28:36.307Z,12.83
2023-02-18T21:31:04.874Z,12.13
2023-02-18T21:33:33.331Z,11.27
2023-02-18T21:36:03.234Z,11.10
2023-02-18T21:38:31.399Z,12.57
2023-02-18T21:40:59.460Z,11.60
2023-02-18T21:43:27.612Z,11.27
2023-02-18T21:45:55.636Z,10.80
2023-02-18T21:48:42.051Z,10.50
2023-02-18T21:51:29.886Z,10.20
2023-02-18T21:53:56.540Z,10.73
2023-02-18T21:56:23.868Z,10.30
2023-02-18T21:58:50.519Z,10.43
2023-02-18T22:01:17.869Z,10.20
2023-02-18T22:03:44.612Z,9.77
2023-02-18T22:06:11.266Z,9.13
2023-02-18T22:08:37.957Z,9.63
2023-02-18T22:11:05.392Z,9.57
2023-02-18T22:13:32.216Z,10.10
2023-02-18T22:15:58.885Z,10.23
2023-02-18T22:18:26.358Z,10.27
2023-02-18T22:20:53.637Z,10.30
2023-02-18T22:23:21.666Z,11.13
2023-02-18T22:25:49.232Z,11.17
2023-02-18T22:28:17.029Z,12.37
2023-02-18T22:30:44.391Z,13.17
2023-02-18T22:33:11.914Z,12.23
2023-02-18T22:35:38.567Z,12.43
2023-02-18T22:38:05.867Z,13.17
2023-02-18T22:40:33.886Z,12.47
2023-02-18T22:43:01.333Z,13.17
2023-02-18T22:45:28.654Z,11.93
2023-02-18T22:47:55.991Z,10.83
2023-02-18T22:50:22.692Z,11.00
2023-02-18T22:52:49.407Z,9.47
2023-02-18T22:55:16.349Z,10.00
2023-02-18T22:57:43.044Z,10.33
2023-02-18T23:00:10.629Z,9.73
2023-02-18T23:02:37.428Z,9.40
2023-02-18T23:05:04.114Z,9.10
2023-02-18T23:07:30.815Z,10.20
2023-02-18T23:09:57.592Z,9.37
2023-02-18T23:12:24.566Z,8.60
2023-02-18T23:14:51.390Z,9.13
2023-02-18T23:17:18.168Z,8.67
2023-02-18T23:19:50.169Z,8.97
2023-02-18T23:22:19.412Z,9.17
2023-02-18T23:24:47.232Z,9.17
2023-02-18T23:27:16.121Z,9.00
2023-02-18T23:29:42.832Z,8.33
2023-02-18T23:32:10.068Z,9.70
2023-02-18T23:34:38.196Z,8.60
2023-02-18T23:37:05.332Z,8.27
2023-02-18T23:39:32.169Z,7.60
2023-02-18T23:41:58.839Z,6.80
2023-02-18T23:44:26.600Z,7.23
2023-02-18T23:46:53.382Z,7.67
2023-02-18T23:49:24.943Z,7.03
2023-02-18T23:51:53.373Z,6.83
2023-02-18T23:54:21.192Z,7.40
2023-02-18T23:56:48.207Z,6.73
2023-02-18T23:59:14.965Z,6.77
